createdAt,value
2022-09-28T00:01:08.078Z,99.90
2022-09-28T00:03:35.293Z,99.90
2022-09-28T00:06:08.666Z,99.90
2022-09-28T00:08:36.269Z,99.90
2022-09-28T00:11:05.423Z,99.90
2022-09-28T00:13:33.258Z,99.90
2022-09-28T00:16:04.736Z,99.90
2022-09-28T00:18:32.306Z,99.90
2022-09-28T00:21:10.101Z,99.90
2022-09-28T00:24:00.120Z,99.90
2022-09-28T00:26:28.376Z,99.90
2022-09-28T00:28:58.784Z,99.90
2022-09-28T00:31:32.660Z,99.90
2022-09-28T00:34:00.984Z,99.90
2022-09-28T00:36:30.049Z,99.90
2022-09-28T00:38:57.113Z,99.90
2022-09-28T00:41:25.917Z,99.90
2022-09-28T00:43:53.911Z,99.90
2022-09-28T00:46:34.806Z,99.90
2022-09-28T00:49:05.226Z,99.90
2022-09-28T00:51:32.612Z,99.90
2022-09-28T00:54:02.236Z,99.90
2022-09-28T00:56:32.901Z,99.90
2022-09-28T00:59:01.155Z,99.90
2022-09-28T01:01:28.599Z,99.90
2022-09-28T01:03:55.381Z,99.90
2022-09-28T01:06:27.607Z,99.90
2022-09-28T01:08:58.566Z,99.90
2022-09-28T01:11:26.932Z,99.90
2022-09-28T01:13:57.521Z,99.90
2022-09-28T01:16:52.358Z,99.90
2022-09-28T01:19:55.382Z,99.90
2022-09-28T01:22:52.301Z,99.90
2022-09-28T01:25:28.180Z,99.90
2022-09-28T01:28:17.228Z,99.90
2022-09-28T01:31:00.335Z,99.90
2022-09-28T01:33:35.540Z,99.90
2022-09-28T01:36:18.089Z,99.90
2022-09-28T01:39:09.296Z,99.90
2022-09-28T01:41:40.373Z,99.90
2022-09-28T01:44:14.231Z,99.90
2022-09-28T01:46:48.393Z,99.90
2022-09-28T01:49:20.891Z,99.90
2022-09-28T01:51:54.003Z,99.90
2022-09-28T01:54:31.806Z,99.90
2022-09-28T01:57:18.196Z,99.90
2022-09-28T02:00:05.577Z,99.90
2022-09-28T02:02:37.642Z,99.90
2022-09-28T02:05:32.104Z,99.90
2022-09-28T02:08:14.008Z,99.90
2022-09-28T02:11:20.245Z,99.90
2022-09-28T02:14:00.829Z,99.90
2022-09-28T02:16:43.288Z,99.90
2022-09-28T02:19:13.753Z,99.90
2022-09-28T02:22:06.258Z,99.90
2022-09-28T02:24:38.820Z,99.90
2022-09-28T02:27:14.954Z,99.90
2022-09-28T02:29:41.995Z,99.90
2022-09-28T02:32:08.893Z,99.90
2022-09-28T02:34:35.806Z,99.90
2022-09-28T02:37:03.073Z,99.90
2022-09-28T02:39:29.815Z,99.90
2022-09-28T02:42:21.110Z,99.90
2022-09-28T02:45:14.377Z,99.90
2022-09-28T02:47:58.991Z,99.90
2022-09-28T02:50:51.561Z,99.90
2022-09-28T02:53:42.278Z,99.90
2022-09-28T02:56:14.836Z,99.90
2022-09-28T02:59:01.240Z,99.90
2022-09-28T03:01:28.028Z,99.90
2022-09-28T03:03:57.922Z,99.90
2022-09-28T03:06:53.243Z,99.90
2022-09-28T03:09:27.148Z,99.90
2022-09-28T03:11:58.291Z,99.90
2022-09-28T03:14:25.420Z,99.90
2022-09-28T03:16:52.250Z,99.90
2022-09-28T03:19:23.651Z,99.90
2022-09-28T03:21:50.447Z,99.90
2022-09-28T03:24:17.278Z,99.90
2022-09-28T03:26:44.062Z,99.90
2022-09-28T03:29:10.912Z,99.90
2022-09-28T03:31:38.192Z,99.90
2022-09-28T03:34:05.183Z,99.90
2022-09-28T03:36:32.010Z,99.90
2022-09-28T03:38:59.668Z,99.90
2022-09-28T03:41:29.947Z,99.90
2022-09-28T03:43:56.761Z,99.90
2022-09-28T03:46:23.571Z,99.90
2022-09-28T03:48:50.309Z,99.90
2022-09-28T03:51:17.126Z,99.90
2022-09-28T03:53:44.036Z,99.90
2022-09-28T03:56:15.782Z,99.90
2022-09-28T03:58:42.708Z,99.90
2022-09-28T04:01:18.379Z,99.90
2022-09-28T04:03:46.012Z,99.90
2022-09-28T04:06:13.512Z,99.90
2022-09-28T04:08:40.523Z,99.90
2022-09-28T04:11:07.367Z,99.90
2022-09-28T04:13:34.170Z,99.90
2022-09-28T04:16:01.842Z,99.90
2022-09-28T04:18:32.775Z,99.90
2022-09-28T04:21:03.694Z,99.90
2022-09-28T04:23:30.632Z,99.90
2022-09-28T04:25:57.481Z,99.90
2022-09-28T04:28:43.203Z,99.90
2022-09-28T04:31:17.982Z,99.90
2022-09-28T04:33:44.960Z,99.90
2022-09-28T04:36:11.865Z,99.90
2022-09-28T04:38:52.762Z,99.90
2022-09-28T04:41:22.319Z,99.90
2022-09-28T04:43:50.021Z,99.90
2022-09-28T04:46:17.406Z,99.90
2022-09-28T04:48:44.437Z,99.90
2022-09-28T04:51:11.355Z,99.90
2022-09-28T04:53:38.294Z,99.90
2022-09-28T04:56:07.646Z,99.90
2022-09-28T04:58:38.100Z,99.90
2022-09-28T05:01:07.986Z,99.90
2022-09-28T05:03:35.031Z,99.90
2022-09-28T05:06:02.304Z,99.90
2022-09-28T05:08:29.892Z,99.90
2022-09-28T05:11:02.248Z,99.90
2022-09-28T05:13:30.553Z,99.90
2022-09-28T05:16:03.032Z,99.90
2022-09-28T05:18:32.003Z,99.90
2022-09-28T05:20:58.862Z,99.90
2022-09-28T05:23:25.683Z,99.90
2022-09-28T05:25:52.591Z,99.90
2022-09-28T05:28:28.999Z,99.90
2022-09-28T05:31:03.744Z,99.90
2022-09-28T05:33:31.567Z,99.90
2022-09-28T05:36:01.341Z,99.90
2022-09-28T05:38:29.835Z,99.90
2022-09-28T05:40:56.915Z,99.90
2022-09-28T05:43:24.115Z,99.90
2022-09-28T05:45:55.337Z,99.90
2022-09-28T05:48:23.208Z,99.90
2022-09-28T05:50:53.863Z,99.90
2022-09-28T05:53:21.004Z,99.90
2022-09-28T05:55:48.073Z,99.90
2022-09-28T05:58:15.791Z,99.90
2022-09-28T06:00:43.239Z,99.90
2022-09-28T06:03:14.574Z,99.90
2022-09-28T06:05:41.962Z,99.90
2022-09-28T06:08:10.696Z,99.90
2022-09-28T06:10:38.246Z,99.90
2022-09-28T06:13:06.562Z,99.90
2022-09-28T06:15:36.090Z,99.90
2022-09-28T06:18:09.874Z,99.90
2022-09-28T06:20:39.715Z,99.90
2022-09-28T06:23:06.641Z,99.90
2022-09-28T06:25:33.545Z,99.90
2022-09-28T06:28:02.814Z,99.90
2022-09-28T06:30:32.385Z,99.90
2022-09-28T06:33:01.192Z,99.90
2022-09-28T06:35:30.461Z,99.90
2022-09-28T06:37:58.451Z,99.90
2022-09-28T06:40:25.901Z,99.90
2022-09-28T06:43:14.943Z,99.90
2022-09-28T06:45:42.774Z,99.90
2022-09-28T06:48:11.224Z,99.90
2022-09-28T06:50:40.577Z,99.90
2022-09-28T06:53:10.608Z,99.90
2022-09-28T06:55:49.155Z,99.90
2022-09-28T06:58:19.565Z,99.90
2022-09-28T07:00:48.434Z,99.90
2022-09-28T07:03:17.749Z,99.90
2022-09-28T07:05:47.020Z,99.90
2022-09-28T07:08:14.484Z,99.90
2022-09-28T07:10:43.907Z,99.90
2022-09-28T07:13:33.617Z,99.90
2022-09-28T07:16:03.945Z,99.90
2022-09-28T07:18:30.906Z,99.90
2022-09-28T07:20:58.329Z,99.90
2022-09-28T07:23:30.877Z,99.90
2022-09-28T07:25:58.312Z,99.90
2022-09-28T07:28:25.469Z,99.90
2022-09-28T07:30:52.298Z,99.90
2022-09-28T07:33:19.104Z,99.90
2022-09-28T07:35:55.587Z,99.90
2022-09-28T07:38:22.458Z,99.90
2022-09-28T07:41:08.096Z,99.90
2022-09-28T07:43:35.405Z,99.90
2022-09-28T07:46:02.305Z,99.90
2022-09-28T07:48:37.772Z,99.90
2022-09-28T07:51:04.917Z,99.90
2022-09-28T07:53:31.715Z,99.90
2022-09-28T07:56:04.391Z,99.90
2022-09-28T07:58:32.932Z,99.90
2022-09-28T08:01:02.937Z,99.90
2022-09-28T08:03:29.735Z,99.90
2022-09-28T08:06:00.976Z,99.90
2022-09-28T08:08:28.858Z,99.90
2022-09-28T08:10:56.841Z,99.90
2022-09-28T08:13:27.079Z,99.90
2022-09-28T08:15:54.788Z,99.90
2022-09-28T08:18:21.630Z,99.90
2022-09-28T08:21:09.876Z,99.90
2022-09-28T08:23:38.305Z,99.90
2022-09-28T08:26:05.756Z,99.90
2022-09-28T08:28:33.006Z,99.90
2022-09-28T08:31:01.762Z,99.90
2022-09-28T08:33:28.702Z,99.90
2022-09-28T08:35:57.804Z,99.90
2022-09-28T08:38:26.719Z,99.90
2022-09-28T08:41:24.357Z,99.90
2022-09-28T08:44:23.949Z,99.90
2022-09-28T08:47:01.387Z,99.90
2022-09-28T08:49:36.275Z,99.90
2022-09-28T08:52:11.476Z,99.90
2022-09-28T08:54:39.043Z,99.90
2022-09-28T08:57:16.380Z,99.90
2022-09-28T08:59:48.881Z,99.90
2022-09-28T09:02:42.714Z,99.90
2022-09-28T09:05:19.154Z,99.90
2022-09-28T09:07:51.719Z,99.90
2022-09-28T09:10:38.199Z,99.90
2022-09-28T09:13:19.991Z,99.90
2022-09-28T09:16:17.005Z,99.90
2022-09-28T09:18:54.369Z,99.90
2022-09-28T09:21:52.914Z,99.90
2022-09-28T09:24:29.347Z,99.90
2022-09-28T09:27:06.963Z,99.90
2022-09-28T09:30:02.939Z,99.90
2022-09-28T09:32:34.336Z,99.90
2022-09-28T09:35:16.163Z,99.90
2022-09-28T09:38:11.114Z,99.90
2022-09-28T09:40:56.257Z,99.90
2022-09-28T09:43:42.077Z,99.90
2022-09-28T09:46:17.985Z,99.90
2022-09-28T09:48:56.503Z,99.90
2022-09-28T09:51:59.746Z,99.90
2022-09-28T09:54:45.622Z,99.90
2022-09-28T09:57:20.566Z,99.90
2022-09-28T09:59:49.263Z,99.90
2022-09-28T10:02:31.833Z,99.90
2022-09-28T10:05:10.780Z,99.90
2022-09-28T10:07:55.151Z,99.90
2022-09-28T10:10:27.437Z,99.90
2022-09-28T10:12:54.664Z,99.90
2022-09-28T10:15:28.407Z,99.90
2022-09-28T10:17:58.496Z,99.90
2022-09-28T10:20:25.654Z,99.90
2022-09-28T10:22:53.908Z,99.90
2022-09-28T10:25:20.904Z,99.90
2022-09-28T10:27:52.138Z,99.90
2022-09-28T10:30:25.391Z,99.90
2022-09-28T10:32:59.012Z,99.90
2022-09-28T10:35:31.702Z,99.90
2022-09-28T10:38:00.142Z,99.90
2022-09-28T10:40:47.322Z,99.90
2022-09-28T10:43:23.556Z,99.90
2022-09-28T10:46:05.779Z,99.90
2022-09-28T10:48:50.581Z,99.90
2022-09-28T10:51:17.890Z,99.90
2022-09-28T10:54:02.744Z,75.00
2022-09-28T10:56:35.850Z,94.30
2022-09-28T10:59:02.840Z,99.40
2022-09-28T11:01:34.457Z,98.00
2022-09-28T11:04:04.206Z,99.90
2022-09-28T11:06:31.697Z,99.90
2022-09-28T11:09:02.661Z,99.90
2022-09-28T11:11:29.907Z,99.90
2022-09-28T11:14:01.265Z,99.90
2022-09-28T11:16:36.384Z,97.40
2022-09-28T11:19:21.792Z,99.90
2022-09-28T11:21:48.615Z,93.90
2022-09-28T11:24:18.840Z,97.80
2022-09-28T11:26:48.344Z,92.40
2022-09-28T11:29:21.559Z,94.20
2022-09-28T11:31:48.642Z,95.10
2022-09-28T11:34:41.550Z,92.70
2022-09-28T11:37:31.321Z,73.60
2022-09-28T11:40:42.453Z,72.30
2022-09-28T11:43:29.509Z,78.30
2022-09-28T11:46:03.692Z,82.20
2022-09-28T11:48:52.887Z,88.40
2022-09-28T11:51:26.804Z,90.60
2022-09-28T11:54:22.937Z,95.30
2022-09-28T11:56:51.140Z,90.70
2022-09-28T11:59:29.655Z,99.90
2022-09-28T12:02:13.912Z,97.40
2022-09-28T12:04:52.815Z,94.50
2022-09-28T12:07:23.782Z,84.50
2022-09-28T12:10:09.480Z,73.10
2022-09-28T12:13:02.000Z,65.30
2022-09-28T12:16:12.932Z,44.90
2022-09-28T12:18:51.378Z,34.00
2022-09-28T12:21:39.932Z,34.70
2022-09-28T12:24:21.804Z,41.60
2022-09-28T12:27:17.615Z,35.00
2022-09-28T12:29:59.259Z,41.20
2022-09-28T12:32:50.728Z,46.40
2022-09-28T12:35:44.632Z,41.90
2022-09-28T12:38:23.437Z,48.20
2022-09-28T12:40:57.625Z,51.40
2022-09-28T12:43:40.695Z,40.90
2022-09-28T12:46:26.177Z,35.00
2022-09-28T12:49:56.240Z,41.70
2022-09-28T12:51:52.887Z,43.50
2022-09-28T12:54:41.731Z,46.10
2022-09-28T12:57:45.177Z,42.30
2022-09-28T13:00:25.128Z,58.40
2022-09-28T13:03:31.689Z,45.40
2022-09-28T13:06:17.268Z,50.80
2022-09-28T13:09:02.973Z,45.80
2022-09-28T13:11:54.494Z,47.20
2022-09-28T13:14:45.770Z,50.00
2022-09-28T13:17:21.373Z,58.70
2022-09-28T13:20:15.998Z,60.50
2022-09-28T13:23:11.803Z,56.30
2022-09-28T13:25:44.310Z,58.90
2022-09-28T13:28:15.649Z,54.90
2022-09-28T13:30:45.200Z,68.60
2022-09-28T13:33:33.777Z,75.40
2022-09-28T13:36:05.612Z,61.50
2022-09-28T13:38:49.591Z,57.20
2022-09-28T13:41:38.195Z,72.10
2022-09-28T13:44:10.904Z,82.30
2022-09-28T13:47:08.549Z,80.80
2022-09-28T13:50:12.931Z,84.80
2022-09-28T13:52:52.006Z,87.80
2022-09-28T13:55:33.193Z,88.40
2022-09-28T13:58:14.598Z,98.30
2022-09-28T14:00:56.724Z,90.60
2022-09-28T14:03:47.325Z,85.90
2022-09-28T14:06:23.362Z,86.00
2022-09-28T14:08:58.924Z,74.60
2022-09-28T14:11:34.985Z,81.20
2022-09-28T14:14:01.782Z,87.30
2022-09-28T14:16:33.186Z,82.40
2022-09-28T14:19:03.095Z,84.80
2022-09-28T14:21:49.592Z,83.50
2022-09-28T14:24:55.579Z,66.50
2022-09-28T14:27:41.858Z,59.50
2022-09-28T14:30:11.774Z,65.00
2022-09-28T14:32:41.118Z,64.00
2022-09-28T14:35:36.973Z,57.30
2022-09-28T14:38:35.891Z,67.80
2022-09-28T14:41:15.792Z,67.60
2022-09-28T14:43:45.557Z,70.00
2022-09-28T14:46:15.565Z,69.20
2022-09-28T14:48:57.672Z,68.60
2022-09-28T14:51:27.440Z,63.20
2022-09-28T14:54:04.616Z,58.80
2022-09-28T14:56:40.392Z,52.80
2022-09-28T14:59:12.991Z,45.30
2022-09-28T15:01:40.132Z,50.90
2022-09-28T15:04:12.409Z,50.00
2022-09-28T15:06:51.121Z,52.70
2022-09-28T15:09:33.707Z,50.70
2022-09-28T15:12:15.106Z,33.20
2022-09-28T15:14:49.132Z,33.40
2022-09-28T15:17:39.762Z,32.20
2022-09-28T15:20:29.931Z,30.30
2022-09-28T15:22:58.679Z,36.40
2022-09-28T15:25:28.218Z,43.20
2022-09-28T15:27:57.314Z,46.30
2022-09-28T15:30:32.719Z,53.80
2022-09-28T15:33:20.096Z,58.90
2022-09-28T15:36:06.743Z,56.60
2022-09-28T15:38:35.008Z,55.30
2022-09-28T15:41:06.799Z,66.70
2022-09-28T15:43:34.743Z,64.60
2022-09-28T15:46:13.582Z,69.70
2022-09-28T15:48:56.671Z,81.50
2022-09-28T15:51:24.588Z,90.40
2022-09-28T15:53:58.388Z,92.40
2022-09-28T15:56:26.342Z,95.60
2022-09-28T15:59:25.267Z,94.50
2022-09-28T16:02:22.726Z,96.90
2022-09-28T16:04:54.057Z,95.60
2022-09-28T16:07:28.833Z,96.70
2022-09-28T16:10:14.022Z,97.20
2022-09-28T16:12:40.735Z,99.60
2022-09-28T16:15:18.313Z,99.90
2022-09-28T16:18:01.596Z,99.90
2022-09-28T16:20:37.380Z,99.90
2022-09-28T16:23:22.816Z,99.90
2022-09-28T16:25:52.098Z,99.90
2022-09-28T16:28:34.671Z,99.90
2022-09-28T16:31:04.817Z,99.90
2022-09-28T16:34:01.260Z,99.90
2022-09-28T16:36:39.522Z,99.90
2022-09-28T16:39:06.298Z,99.90
2022-09-28T16:41:33.055Z,99.90
2022-09-28T16:44:02.152Z,99.90
2022-09-28T16:46:36.327Z,99.90
2022-09-28T16:49:05.891Z,99.90
2022-09-28T16:51:33.615Z,99.90
2022-09-28T16:54:32.007Z,99.90
2022-09-28T16:56:59.608Z,99.90
2022-09-28T16:59:26.552Z,99.90
2022-09-28T17:01:54.345Z,99.90
2022-09-28T17:04:23.235Z,99.90
2022-09-28T17:06:54.278Z,99.90
2022-09-28T17:09:21.888Z,99.90
2022-09-28T17:11:56.142Z,99.90
2022-09-28T17:14:23.984Z,99.90
2022-09-28T17:17:13.716Z,99.90
2022-09-28T17:19:41.018Z,99.90
2022-09-28T17:22:09.058Z,99.90
2022-09-28T17:24:36.151Z,99.90
2022-09-28T17:27:03.448Z,99.90
2022-09-28T17:29:30.442Z,99.90
2022-09-28T17:31:57.233Z,99.90
2022-09-28T17:34:24.192Z,99.90
2022-09-28T17:36:51.865Z,99.90
2022-09-28T17:39:19.161Z,99.90
2022-09-28T17:41:47.683Z,99.90
2022-09-28T17:44:16.228Z,99.90
2022-09-28T17:46:47.416Z,99.90
2022-09-28T17:49:16.068Z,99.90
2022-09-28T17:51:42.861Z,99.90
2022-09-28T17:54:10.018Z,99.90
2022-09-28T17:56:37.086Z,99.90
2022-09-28T17:59:06.716Z,99.90
2022-09-28T18:01:34.913Z,99.90
2022-09-28T18:04:08.172Z,99.90
2022-09-28T18:06:37.281Z,99.90
2022-09-28T18:09:05.300Z,99.90
2022-09-28T18:11:33.357Z,99.90
2022-09-28T18:14:00.160Z,99.90
2022-09-28T18:16:28.893Z,99.90
2022-09-28T18:18:56.055Z,99.90
2022-09-28T18:21:22.886Z,99.90
2022-09-28T18:23:49.678Z,99.90
2022-09-28T18:26:19.015Z,99.90
2022-09-28T18:28:46.290Z,99.90
2022-09-28T18:31:14.996Z,99.90
2022-09-28T18:33:41.855Z,99.90
2022-09-28T18:36:10.020Z,99.90
2022-09-28T18:38:37.846Z,99.90
2022-09-28T18:41:09.168Z,99.90
2022-09-28T18:43:37.815Z,99.90
2022-09-28T18:46:09.638Z,99.90
2022-09-28T18:48:37.481Z,99.90
2022-09-28T18:51:09.483Z,99.90
2022-09-28T18:53:37.134Z,99.90
2022-09-28T18:56:12.444Z,99.90
2022-09-28T18:58:40.619Z,99.90
2022-09-28T19:01:29.810Z,99.90
2022-09-28T19:04:00.523Z,99.90
2022-09-28T19:06:27.720Z,99.90
2022-09-28T19:08:58.056Z,99.90
2022-09-28T19:11:25.755Z,99.90
2022-09-28T19:13:54.358Z,99.90
2022-09-28T19:16:24.392Z,99.90
2022-09-28T19:18:53.695Z,99.90
2022-09-28T19:21:21.368Z,99.90
2022-09-28T19:23:49.844Z,99.90
2022-09-28T19:26:20.396Z,99.90
2022-09-28T19:28:47.493Z,99.90
2022-09-28T19:31:14.270Z,99.90
2022-09-28T19:33:41.732Z,99.90
2022-09-28T19:36:11.468Z,99.90
2022-09-28T19:38:39.556Z,99.90
2022-09-28T19:41:40.844Z,99.90
2022-09-28T19:44:30.073Z,99.90
2022-09-28T19:46:59.609Z,99.90
2022-09-28T19:49:27.862Z,99.90
2022-09-28T19:52:14.351Z,99.90
2022-09-28T19:54:45.721Z,99.90
2022-09-28T19:57:14.470Z,99.90
2022-09-28T19:59:41.601Z,99.90
2022-09-28T20:02:10.483Z,99.90
2022-09-28T20:04:37.353Z,99.90
2022-09-28T20:07:05.289Z,99.90
2022-09-28T20:09:32.785Z,99.90
2022-09-28T20:11:59.644Z,99.90
2022-09-28T20:14:31.223Z,99.90
2022-09-28T20:17:01.008Z,99.90
2022-09-28T20:19:27.821Z,99.90
2022-09-28T20:21:58.574Z,99.90
2022-09-28T20:24:25.494Z,99.90
2022-09-28T20:26:52.275Z,99.90
2022-09-28T20:29:19.108Z,99.90
2022-09-28T20:31:45.926Z,99.90
2022-09-28T20:34:13.075Z,99.90
2022-09-28T20:36:42.423Z,99.90
2022-09-28T20:39:10.864Z,99.90
2022-09-28T20:41:37.770Z,99.90
2022-09-28T20:44:06.462Z,99.90
2022-09-28T20:46:35.568Z,99.90
2022-09-28T20:49:02.715Z,99.90
2022-09-28T20:51:29.507Z,99.90
2022-09-28T20:53:57.791Z,99.90
2022-09-28T20:56:27.190Z,99.90
2022-09-28T20:58:54.911Z,99.90
2022-09-28T21:01:29.914Z,99.90
2022-09-28T21:04:01.737Z,99.90
2022-09-28T21:06:34.443Z,99.90
2022-09-28T21:09:01.482Z,99.90
2022-09-28T21:11:29.722Z,99.90
2022-09-28T21:14:01.720Z,99.90
2022-09-28T21:16:31.325Z,99.90
2022-09-28T21:18:58.336Z,99.90
2022-09-28T21:21:25.856Z,99.90
2022-09-28T21:23:53.950Z,99.90
2022-09-28T21:26:25.222Z,99.90
2022-09-28T21:28:53.715Z,99.90
2022-09-28T21:31:26.082Z,99.90
2022-09-28T21:33:55.520Z,99.90
2022-09-28T21:36:22.329Z,99.90
2022-09-28T21:38:49.381Z,99.90
2022-09-28T21:41:16.855Z,99.90
2022-09-28T21:43:43.663Z,99.90
2022-09-28T21:46:10.927Z,99.90
2022-09-28T21:48:37.773Z,99.90
2022-09-28T21:51:07.078Z,99.90
2022-09-28T21:53:35.559Z,99.90
2022-09-28T21:56:04.113Z,99.90
2022-09-28T21:58:33.614Z,99.90
2022-09-28T22:01:01.556Z,99.90
2022-09-28T22:03:29.662Z,99.90
2022-09-28T22:05:56.580Z,99.90
2022-09-28T22:08:23.732Z,99.90
2022-09-28T22:11:09.882Z,99.90
2022-09-28T22:13:52.657Z,99.90
2022-09-28T22:16:21.635Z,99.90
2022-09-28T22:18:49.081Z,99.90
2022-09-28T22:21:25.645Z,99.90
2022-09-28T22:23:57.540Z,99.90
2022-09-28T22:26:25.748Z,99.90
2022-09-28T22:28:57.535Z,99.90
2022-09-28T22:31:30.460Z,99.90
2022-09-28T22:33:57.906Z,99.90
2022-09-28T22:36:25.906Z,99.90
2022-09-28T22:38:54.197Z,99.90
2022-09-28T22:41:21.045Z,99.90
2022-09-28T22:43:49.084Z,99.90
2022-09-28T22:46:18.335Z,99.90
2022-09-28T22:48:55.697Z,99.90
2022-09-28T22:51:24.343Z,99.90
2022-09-28T22:53:51.169Z,99.90
2022-09-28T22:56:19.165Z,99.90
2022-09-28T22:58:46.878Z,99.90
2022-09-28T23:01:17.831Z,99.90
2022-09-28T23:03:45.574Z,99.90
2022-09-28T23:06:16.030Z,99.90
2022-09-28T23:08:44.464Z,99.90
2022-09-28T23:11:11.839Z,99.90
2022-09-28T23:13:38.670Z,99.90
2022-09-28T23:16:08.044Z,99.90
2022-09-28T23:18:37.227Z,99.90
2022-09-28T23:21:07.483Z,99.90
2022-09-28T23:23:34.534Z,99.90
2022-09-28T23:26:09.529Z,99.90
2022-09-28T23:28:36.309Z,99.90
2022-09-28T23:31:23.111Z,99.90
2022-09-28T23:33:50.532Z,99.90
2022-09-28T23:36:18.186Z,99.90
2022-09-28T23:38:45.008Z,99.90
2022-09-28T23:41:11.967Z,99.90
2022-09-28T23:43:38.927Z,99.90
2022-09-28T23:46:06.483Z,99.90
2022-09-28T23:48:34.251Z,99.90
2022-09-28T23:51:02.156Z,99.90
2022-09-28T23:53:29.717Z,99.90
2022-09-28T23:55:56.531Z,99.90
2022-09-28T23:58:24.018Z,99.90
